createdAt,value
2019-03-28T00:01:12.861Z,36.13
2019-03-28T00:03:41.365Z,38.80
2019-03-28T00:06:09.862Z,35.43
2019-03-28T00:08:38.364Z,35.88
2019-03-28T00:11:06.887Z,39.13
2019-03-28T00:13:35.392Z,35.60
2019-03-28T00:16:04.162Z,34.45
2019-03-28T00:18:32.673Z,37.60
2019-03-28T00:21:01.273Z,37.15
2019-03-28T00:23:32.155Z,39.25
2019-03-28T00:26:00.804Z,40.33
2019-03-28T00:28:29.370Z,37.95
2019-03-28T00:30:57.919Z,36.33
2019-03-28T00:33:26.468Z,37.98
2019-03-28T00:35:54.993Z,39.00
2019-03-28T00:38:23.636Z,33.90
2019-03-28T00:40:52.146Z,37.33
2019-03-28T00:43:23.182Z,39.08
2019-03-28T00:45:51.704Z,38.20
2019-03-28T00:48:20.434Z,37.70
2019-03-28T00:50:49.132Z,41.48
2019-03-28T00:53:17.676Z,39.85
2019-03-28T00:55:46.204Z,36.25
2019-03-28T00:58:17.730Z,34.92
2019-03-28T01:00:46.366Z,40.28
2019-03-28T01:03:15.236Z,39.83
2019-03-28T01:05:43.726Z,39.27
2019-03-28T01:08:12.369Z,29.30
2019-03-28T01:10:40.925Z,35.95
2019-03-28T01:13:09.666Z,41.98
2019-03-28T01:15:38.167Z,33.88
2019-03-28T01:18:06.793Z,32.05
2019-03-28T01:20:35.378Z,34.03
2019-03-28T01:23:03.893Z,33.40
2019-03-28T01:25:32.413Z,29.23
2019-03-28T01:28:00.958Z,32.63
2019-03-28T01:30:29.464Z,36.83
2019-03-28T01:32:59.636Z,35.33
2019-03-28T01:35:29.783Z,38.48
2019-03-28T01:37:59.954Z,31.33
2019-03-28T01:40:28.452Z,35.73
2019-03-28T01:42:57.030Z,32.70
2019-03-28T01:45:25.603Z,29.52
2019-03-28T01:47:54.129Z,35.48
2019-03-28T01:50:25.406Z,35.60
2019-03-28T01:53:01.185Z,30.90
2019-03-28T01:55:27.233Z,36.98
2019-03-28T01:57:55.755Z,28.67
2019-03-28T02:00:24.380Z,29.23
2019-03-28T02:02:52.889Z,32.35
2019-03-28T02:05:21.590Z,34.30
2019-03-28T02:07:50.283Z,33.75
2019-03-28T02:10:18.973Z,30.35
2019-03-28T02:12:47.468Z,29.67
2019-03-28T02:15:16.204Z,31.55
2019-03-28T02:17:44.784Z,32.90
2019-03-28T02:20:13.485Z,29.40
2019-03-28T02:22:41.968Z,33.58
2019-03-28T02:25:10.794Z,29.63
2019-03-28T02:27:39.311Z,29.55
2019-03-28T02:30:11.447Z,33.65
2019-03-28T02:32:40.024Z,30.08
2019-03-28T02:35:09.217Z,36.93
2019-03-28T02:37:37.828Z,31.10
2019-03-28T02:40:10.743Z,35.78
2019-03-28T02:42:39.298Z,36.25
2019-03-28T02:45:08.419Z,34.03
2019-03-28T02:47:36.912Z,33.78
2019-03-28T02:50:09.387Z,34.45
2019-03-28T02:52:37.880Z,36.60
2019-03-28T02:55:10.245Z,29.48
2019-03-28T02:57:42.056Z,33.80
2019-03-28T03:00:09.825Z,36.68
2019-03-28T03:02:38.434Z,38.73
2019-03-28T03:05:10.356Z,35.90
2019-03-28T03:07:38.888Z,45.45
2019-03-28T03:10:09.249Z,38.95
2019-03-28T03:12:37.749Z,35.35
2019-03-28T03:15:08.044Z,37.55
2019-03-28T03:17:36.547Z,34.10
2019-03-28T03:20:06.758Z,34.63
2019-03-28T03:22:35.259Z,42.75
2019-03-28T03:25:05.973Z,34.78
2019-03-28T03:27:37.627Z,41.60
2019-03-28T03:30:08.112Z,37.98
2019-03-28T03:32:36.757Z,32.45
2019-03-28T03:35:06.099Z,33.35
2019-03-28T03:37:34.794Z,40.12
2019-03-28T03:40:05.753Z,31.10
2019-03-28T03:42:34.417Z,35.90
2019-03-28T03:45:06.278Z,34.78
2019-03-28T03:47:34.774Z,39.67
2019-03-28T03:50:07.505Z,45.63
2019-03-28T03:52:36.063Z,41.18
2019-03-28T03:55:06.699Z,38.00
2019-03-28T03:57:35.183Z,38.10
2019-03-28T04:00:05.742Z,40.43
2019-03-28T04:02:34.219Z,43.02
2019-03-28T04:05:02.852Z,45.70
2019-03-28T04:07:31.431Z,41.42
2019-03-28T04:09:59.939Z,47.53
2019-03-28T04:12:31.223Z,41.92
2019-03-28T04:14:59.804Z,34.75
2019-03-28T04:17:28.289Z,37.28
2019-03-28T04:19:56.825Z,36.35
2019-03-28T04:22:25.320Z,38.08
2019-03-28T04:24:53.914Z,44.30
2019-03-28T04:27:22.462Z,41.10
2019-03-28T04:29:50.962Z,38.60
2019-03-28T04:32:20.579Z,44.38
2019-03-28T04:34:49.362Z,41.23
2019-03-28T04:37:18.618Z,40.28
2019-03-28T04:39:49.413Z,45.85
2019-03-28T04:42:20.197Z,42.60
2019-03-28T04:44:48.698Z,36.00
2019-03-28T04:47:17.262Z,44.20
2019-03-28T04:49:45.763Z,44.67
2019-03-28T04:52:14.781Z,41.48
2019-03-28T04:54:43.269Z,43.13
2019-03-28T04:57:11.830Z,41.23
2019-03-28T04:59:40.421Z,46.02
2019-03-28T05:02:09.971Z,44.50
2019-03-28T05:04:38.501Z,42.50
2019-03-28T05:07:07.011Z,44.08
2019-03-28T05:09:35.578Z,42.15
2019-03-28T05:12:04.162Z,49.58
2019-03-28T05:14:32.691Z,53.02
2019-03-28T05:17:01.259Z,53.00
2019-03-28T05:19:29.761Z,48.38
2019-03-28T05:21:58.362Z,44.65
2019-03-28T05:24:26.995Z,49.33
2019-03-28T05:26:56.105Z,44.98
2019-03-28T05:29:26.525Z,55.63
2019-03-28T05:31:54.883Z,50.55
2019-03-28T05:34:23.393Z,50.43
2019-03-28T05:36:52.303Z,47.53
2019-03-28T05:39:20.979Z,49.03
2019-03-28T05:41:49.507Z,53.23
2019-03-28T05:44:18.022Z,57.33
2019-03-28T05:46:46.539Z,44.83
2019-03-28T05:49:15.063Z,50.30
2019-03-28T05:51:43.560Z,48.87
2019-03-28T05:54:13.691Z,52.17
2019-03-28T05:56:42.261Z,47.15
2019-03-28T05:59:11.603Z,49.08
2019-03-28T06:01:42.215Z,49.42
2019-03-28T06:04:10.780Z,48.13
2019-03-28T06:06:39.528Z,53.25
2019-03-28T06:09:11.321Z,52.33
2019-03-28T06:11:39.864Z,48.75
2019-03-28T06:14:19.652Z,48.98
2019-03-28T06:16:48.176Z,52.45
2019-03-28T06:19:16.705Z,48.33
2019-03-28T06:21:45.228Z,44.65
2019-03-28T06:24:16.496Z,67.80
2019-03-28T06:26:49.962Z,51.50
2019-03-28T06:29:24.022Z,50.12
2019-03-28T06:31:55.227Z,52.00
2019-03-28T06:34:20.431Z,47.90
2019-03-28T06:36:48.903Z,50.92
2019-03-28T06:39:17.391Z,50.58
2019-03-28T06:41:45.903Z,46.25
2019-03-28T06:44:14.414Z,39.53
2019-03-28T06:46:42.952Z,43.52
2019-03-28T06:49:11.795Z,44.00
2019-03-28T06:51:40.301Z,49.18
2019-03-28T06:54:08.807Z,41.33
2019-03-28T06:56:37.327Z,50.78
2019-03-28T06:59:06.007Z,44.45
2019-03-28T07:01:34.524Z,52.38
2019-03-28T07:04:06.123Z,43.25
2019-03-28T07:06:34.694Z,50.50
2019-03-28T07:09:04.265Z,53.75
2019-03-28T07:11:33.229Z,50.00
2019-03-28T07:14:02.378Z,52.20
2019-03-28T07:16:30.941Z,46.85
2019-03-28T07:18:59.465Z,50.05
2019-03-28T07:21:30.157Z,45.17
2019-03-28T07:23:58.697Z,48.78
2019-03-28T07:26:27.275Z,49.75
2019-03-28T07:28:55.945Z,40.70
2019-03-28T07:31:24.535Z,42.03
2019-03-28T07:33:55.785Z,43.10
2019-03-28T07:36:24.266Z,44.80
2019-03-28T07:38:52.820Z,48.00
2019-03-28T07:41:24.178Z,44.50
2019-03-28T07:43:52.678Z,46.70
2019-03-28T07:46:21.182Z,43.42
2019-03-28T07:48:49.710Z,46.83
2019-03-28T07:51:18.212Z,45.98
2019-03-28T07:53:47.419Z,44.50
2019-03-28T07:56:16.008Z,44.03
2019-03-28T07:58:44.619Z,42.25
2019-03-28T08:01:13.097Z,42.38
2019-03-28T08:03:41.617Z,40.75
2019-03-28T08:06:12.795Z,46.45
2019-03-28T08:08:44.056Z,38.55
2019-03-28T08:11:11.166Z,48.38
2019-03-28T08:13:39.696Z,41.88
2019-03-28T08:16:08.195Z,41.40
2019-03-28T08:18:38.245Z,49.77
2019-03-28T08:21:06.753Z,37.42
2019-03-28T08:23:35.618Z,34.48
2019-03-28T08:26:04.513Z,40.55
2019-03-28T08:28:33.066Z,40.38
2019-03-28T08:31:04.510Z,42.85
2019-03-28T08:33:33.576Z,37.50
2019-03-28T08:36:04.562Z,35.75
2019-03-28T08:38:35.750Z,45.38
2019-03-28T08:41:06.978Z,42.93
2019-03-28T08:43:36.108Z,41.98
2019-03-28T08:46:04.830Z,39.15
2019-03-28T08:48:34.854Z,37.23
2019-03-28T08:51:06.576Z,37.95
2019-03-28T08:53:37.640Z,38.65
2019-03-28T08:56:06.040Z,38.73
2019-03-28T08:58:37.870Z,34.25
2019-03-28T09:01:06.393Z,40.52
2019-03-28T09:03:34.894Z,37.90
2019-03-28T09:06:03.590Z,39.35
2019-03-28T09:08:32.044Z,32.88
2019-03-28T09:11:00.569Z,34.45
2019-03-28T09:13:29.124Z,32.90
2019-03-28T09:15:57.695Z,32.45
2019-03-28T09:18:26.218Z,29.30
2019-03-28T09:20:54.812Z,28.50
2019-03-28T09:23:23.388Z,29.02
2019-03-28T09:25:52.054Z,25.50
2019-03-28T09:28:20.613Z,27.82
2019-03-28T09:30:49.849Z,27.58
2019-03-28T09:33:18.549Z,29.18
2019-03-28T09:35:47.177Z,27.13
2019-03-28T09:38:17.230Z,25.92
2019-03-28T09:40:57.042Z,23.83
2019-03-28T09:43:25.574Z,29.23
2019-03-28T09:45:54.155Z,26.12
2019-03-28T09:48:22.857Z,33.55
2019-03-28T09:50:51.421Z,28.47
2019-03-28T09:53:19.951Z,27.55
2019-03-28T09:55:48.509Z,25.68
2019-03-28T09:58:17.007Z,28.12
2019-03-28T10:00:46.089Z,28.85
2019-03-28T10:03:17.404Z,30.10
2019-03-28T10:05:45.902Z,30.68
2019-03-28T10:08:14.498Z,23.07
2019-03-28T10:10:43.136Z,28.07
2019-03-28T10:13:13.167Z,27.45
2019-03-28T10:15:41.840Z,25.25
2019-03-28T10:18:10.425Z,23.22
2019-03-28T10:20:41.013Z,28.27
2019-03-28T10:23:12.587Z,26.65
2019-03-28T10:25:41.397Z,24.20
2019-03-28T10:28:09.881Z,23.62
2019-03-28T10:30:40.768Z,21.70
2019-03-28T10:33:09.577Z,21.52
2019-03-28T10:35:38.238Z,21.00
2019-03-28T10:38:08.541Z,23.47
2019-03-28T10:40:37.168Z,22.93
2019-03-28T10:43:07.283Z,20.77
2019-03-28T10:45:36.833Z,25.85
2019-03-28T10:48:05.471Z,25.35
2019-03-28T10:50:41.486Z,20.50
2019-03-28T10:53:04.349Z,24.05
2019-03-28T10:55:32.873Z,26.68
2019-03-28T10:58:17.232Z,19.00
2019-03-28T11:00:32.785Z,20.45
2019-03-28T11:03:01.359Z,19.87
2019-03-28T11:05:32.633Z,18.60
2019-03-28T11:08:01.142Z,21.77
2019-03-28T11:10:30.640Z,19.87
2019-03-28T11:12:59.485Z,21.02
2019-03-28T11:15:28.039Z,22.80
2019-03-28T11:17:56.638Z,22.93
2019-03-28T11:20:25.496Z,23.62
2019-03-28T11:22:54.012Z,23.32
2019-03-28T11:25:24.378Z,22.87
2019-03-28T11:27:52.908Z,22.00
2019-03-28T11:30:23.024Z,16.12
2019-03-28T11:32:51.522Z,20.62
2019-03-28T11:35:21.875Z,16.65
2019-03-28T11:37:53.358Z,17.00
2019-03-28T11:40:24.571Z,20.30
2019-03-28T11:42:55.558Z,17.95
2019-03-28T11:45:26.940Z,19.82
2019-03-28T11:47:55.980Z,17.40
2019-03-28T11:50:24.632Z,21.70
2019-03-28T11:52:53.248Z,17.55
2019-03-28T11:55:21.827Z,18.62
2019-03-28T11:57:50.356Z,16.93
2019-03-28T12:00:19.704Z,20.30
2019-03-28T12:02:48.214Z,18.52
2019-03-28T12:05:16.893Z,16.90
2019-03-28T12:07:45.488Z,20.82
2019-03-28T12:10:14.550Z,17.30
2019-03-28T12:12:43.207Z,16.95
2019-03-28T12:15:12.981Z,21.00
2019-03-28T12:17:41.550Z,20.32
2019-03-28T12:20:11.703Z,20.77
2019-03-28T12:22:40.348Z,18.10
2019-03-28T12:25:09.042Z,20.80
2019-03-28T12:27:37.715Z,21.45
2019-03-28T12:30:08.553Z,21.00
2019-03-28T12:32:37.089Z,21.20
2019-03-28T12:35:07.860Z,17.12
2019-03-28T12:37:36.842Z,19.23
2019-03-28T12:40:08.504Z,21.77
2019-03-28T12:42:37.166Z,19.02
2019-03-28T12:45:12.951Z,22.48
2019-03-28T12:47:43.145Z,17.12
2019-03-28T12:50:13.191Z,20.15
2019-03-28T12:52:41.846Z,17.40
2019-03-28T12:55:10.983Z,19.37
2019-03-28T12:57:39.626Z,16.60
2019-03-28T13:00:10.381Z,18.23
2019-03-28T13:02:39.471Z,17.92
2019-03-28T13:05:09.844Z,18.60
2019-03-28T13:07:38.374Z,20.70
2019-03-28T13:10:12.589Z,21.00
2019-03-28T13:12:41.173Z,19.55
2019-03-28T13:15:10.390Z,16.73
2019-03-28T13:17:38.911Z,20.43
2019-03-28T13:20:09.462Z,19.70
2019-03-28T13:22:38.045Z,19.48
2019-03-28T13:25:09.880Z,19.75
2019-03-28T13:27:38.435Z,19.12
2019-03-28T13:30:10.250Z,21.68
2019-03-28T13:32:41.972Z,20.48
2019-03-28T13:35:09.747Z,19.10
2019-03-28T13:37:38.228Z,20.27
2019-03-28T13:40:08.664Z,21.50
2019-03-28T13:42:40.930Z,17.27
2019-03-28T13:45:11.555Z,22.27
2019-03-28T13:47:40.125Z,17.95
2019-03-28T13:50:10.938Z,19.90
2019-03-28T13:52:41.890Z,21.65
2019-03-28T13:55:13.546Z,18.92
2019-03-28T13:57:43.507Z,15.70
2019-03-28T14:00:13.709Z,18.35
2019-03-28T14:02:55.495Z,16.37
2019-03-28T14:05:14.117Z,21.05
2019-03-28T14:07:42.579Z,17.65
2019-03-28T14:10:11.543Z,17.25
2019-03-28T14:12:40.043Z,17.73
2019-03-28T14:15:12.243Z,18.62
2019-03-28T14:17:40.723Z,19.37
2019-03-28T14:20:14.644Z,18.95
2019-03-28T14:22:43.172Z,20.23
2019-03-28T14:25:12.054Z,16.40
2019-03-28T14:27:40.530Z,19.32
2019-03-28T14:30:11.636Z,17.98
2019-03-28T14:32:52.496Z,19.80
2019-03-28T14:35:10.808Z,17.15
2019-03-28T14:37:40.731Z,16.12
2019-03-28T14:40:11.833Z,16.10
2019-03-28T14:42:40.985Z,18.23
2019-03-28T14:45:09.952Z,17.37
2019-03-28T14:47:42.006Z,19.52
2019-03-28T14:50:11.994Z,16.17
2019-03-28T14:52:40.546Z,17.40
2019-03-28T14:55:09.220Z,18.73
2019-03-28T14:57:38.250Z,21.87
2019-03-28T15:00:10.005Z,20.82
2019-03-28T15:02:38.555Z,22.98
2019-03-28T15:05:07.324Z,16.87
2019-03-28T15:07:35.798Z,22.82
2019-03-28T15:10:07.013Z,21.48
2019-03-28T15:12:35.478Z,20.60
2019-03-28T15:15:04.561Z,28.90
2019-03-28T15:17:33.032Z,24.45
2019-03-28T15:20:01.617Z,22.80
2019-03-28T15:22:30.102Z,22.10
2019-03-28T15:24:58.586Z,23.18
2019-03-28T15:27:28.518Z,22.22
2019-03-28T15:29:57.030Z,26.68
2019-03-28T15:32:25.571Z,24.60
2019-03-28T15:34:54.057Z,21.40
2019-03-28T15:37:27.478Z,25.85
2019-03-28T15:40:18.714Z,25.25
2019-03-28T15:42:47.523Z,25.32
2019-03-28T15:45:16.162Z,27.75
2019-03-28T15:47:44.634Z,23.27
2019-03-28T15:50:13.321Z,24.27
2019-03-28T15:52:41.878Z,20.50
2019-03-28T15:55:10.544Z,23.18
2019-03-28T15:57:40.866Z,21.00
2019-03-28T16:00:11.017Z,29.02
2019-03-28T16:02:42.809Z,24.10
2019-03-28T16:05:14.553Z,22.98
2019-03-28T16:07:43.655Z,21.20
2019-03-28T16:10:14.770Z,25.25
2019-03-28T16:12:44.356Z,27.30
2019-03-28T16:15:14.425Z,26.27
2019-03-28T16:17:42.973Z,23.12
2019-03-28T16:20:12.116Z,24.90
2019-03-28T16:22:40.579Z,21.50
2019-03-28T16:25:09.349Z,23.98
2019-03-28T16:27:37.828Z,22.35
2019-03-28T16:30:30.108Z,20.90
2019-03-28T16:32:58.650Z,23.85
2019-03-28T16:35:27.160Z,21.85
2019-03-28T16:37:55.656Z,20.32
2019-03-28T16:40:24.254Z,18.00
2019-03-28T16:42:52.747Z,18.87
2019-03-28T16:45:21.397Z,19.37
2019-03-28T16:47:49.871Z,20.17
2019-03-28T16:50:19.259Z,20.08
2019-03-28T16:52:48.287Z,19.50
2019-03-28T16:55:26.229Z,19.48
2019-03-28T16:57:47.263Z,17.67
2019-03-28T17:00:16.743Z,21.40
2019-03-28T17:02:56.088Z,17.85
2019-03-28T17:05:25.956Z,17.52
2019-03-28T17:07:54.618Z,21.23
2019-03-28T17:10:42.431Z,21.70
2019-03-28T17:13:16.382Z,16.40
2019-03-28T17:15:47.272Z,17.62
2019-03-28T17:18:18.445Z,24.07
2019-03-28T17:20:46.072Z,19.95
2019-03-28T17:23:14.686Z,18.52
2019-03-28T17:25:43.245Z,20.60
2019-03-28T17:28:14.924Z,21.95
2019-03-28T17:30:48.314Z,21.80
2019-03-28T17:33:18.953Z,29.05
2019-03-28T17:35:49.558Z,21.60
2019-03-28T17:38:17.752Z,25.12
2019-03-28T17:40:46.698Z,32.70
2019-03-28T17:43:15.895Z,43.38
2019-03-28T17:45:44.858Z,32.42
2019-03-28T17:48:13.457Z,35.92
2019-03-28T17:50:43.715Z,22.55
2019-03-28T17:53:12.519Z,21.23
2019-03-28T17:55:40.991Z,24.10
2019-03-28T17:58:13.708Z,20.55
2019-03-28T18:00:46.840Z,20.77
2019-03-28T18:03:15.392Z,24.63
2019-03-28T18:05:57.131Z,23.30
2019-03-28T18:08:14.403Z,27.48
2019-03-28T18:10:44.458Z,29.35
2019-03-28T18:13:16.146Z,27.98
2019-03-28T18:15:47.951Z,28.57
2019-03-28T18:18:16.467Z,23.87
2019-03-28T18:20:44.962Z,23.35
2019-03-28T18:23:13.433Z,20.97
2019-03-28T18:25:44.912Z,20.82
2019-03-28T18:28:15.331Z,20.02
2019-03-28T18:30:43.902Z,22.32
2019-03-28T18:33:12.436Z,19.77
2019-03-28T18:35:41.026Z,21.40
2019-03-28T18:38:10.697Z,18.75
2019-03-28T18:40:40.231Z,18.90
2019-03-28T18:43:08.872Z,19.52
2019-03-28T18:45:37.497Z,20.15
2019-03-28T18:48:08.876Z,23.35
2019-03-28T18:50:36.381Z,19.85
2019-03-28T18:53:06.951Z,15.30
2019-03-28T18:55:41.519Z,15.03
2019-03-28T18:58:10.047Z,15.20
2019-03-28T19:00:38.678Z,16.73
2019-03-28T19:03:10.171Z,17.42
2019-03-28T19:05:45.366Z,23.20
2019-03-28T19:08:13.910Z,20.25
2019-03-28T19:10:45.405Z,17.27
2019-03-28T19:13:14.167Z,21.50
2019-03-28T19:15:42.827Z,18.20
2019-03-28T19:18:13.196Z,19.85
2019-03-28T19:20:41.819Z,19.52
2019-03-28T19:23:10.869Z,22.15
2019-03-28T19:25:42.847Z,20.40
2019-03-28T19:28:27.643Z,18.77
2019-03-28T19:30:46.980Z,19.30
2019-03-28T19:33:15.477Z,21.65
2019-03-28T19:35:45.240Z,18.77
2019-03-28T19:38:13.811Z,20.27
2019-03-28T19:40:42.452Z,20.05
2019-03-28T19:43:20.454Z,19.85
2019-03-28T19:45:46.706Z,19.77
2019-03-28T19:48:15.258Z,17.77
2019-03-28T19:50:46.540Z,18.30
2019-03-28T19:53:19.328Z,22.62
2019-03-28T19:55:49.362Z,14.75
2019-03-28T19:58:17.897Z,18.40
2019-03-28T20:00:46.539Z,21.40
2019-03-28T20:03:15.002Z,15.78
2019-03-28T20:05:47.823Z,17.07
2019-03-28T20:08:15.961Z,21.42
2019-03-28T20:10:50.296Z,16.57
2019-03-28T20:13:23.869Z,18.20
2019-03-28T20:15:52.806Z,17.57
2019-03-28T20:18:21.355Z,15.72
2019-03-28T20:20:49.912Z,15.23
2019-03-28T20:23:18.560Z,14.38
2019-03-28T20:25:47.162Z,17.35
2019-03-28T20:28:16.394Z,18.52
2019-03-28T20:30:45.103Z,19.85
2019-03-28T20:33:13.569Z,15.15
2019-03-28T20:35:42.198Z,21.60
2019-03-28T20:38:10.744Z,19.45
2019-03-28T20:40:39.401Z,18.45
2019-03-28T20:43:10.643Z,25.40
2019-03-28T20:45:39.180Z,21.97
2019-03-28T20:48:12.137Z,19.52
2019-03-28T20:50:45.518Z,18.48
2019-03-28T20:53:13.392Z,21.97
2019-03-28T20:55:44.859Z,19.05
2019-03-28T20:58:13.545Z,22.93
2019-03-28T21:00:44.399Z,17.98
2019-03-28T21:03:15.024Z,17.00
2019-03-28T21:05:45.080Z,18.00
2019-03-28T21:08:13.869Z,18.45
2019-03-28T21:10:42.415Z,19.30
2019-03-28T21:13:10.993Z,19.30
2019-03-28T21:15:39.539Z,20.80
2019-03-28T21:18:08.074Z,19.48
2019-03-28T21:20:36.791Z,20.45
2019-03-28T21:23:05.531Z,18.10
2019-03-28T21:25:34.033Z,18.73
2019-03-28T21:28:02.594Z,21.48
2019-03-28T21:30:31.176Z,20.10
2019-03-28T21:32:59.740Z,18.98
2019-03-28T21:35:28.286Z,19.92
2019-03-28T21:37:56.788Z,22.50
2019-03-28T21:40:25.319Z,20.95
2019-03-28T21:42:53.776Z,19.67
2019-03-28T21:45:22.555Z,18.70
2019-03-28T21:47:51.149Z,20.02
2019-03-28T21:50:19.778Z,21.52
2019-03-28T21:52:48.435Z,21.12
2019-03-28T21:55:18.711Z,18.50
2019-03-28T21:57:47.193Z,18.95
2019-03-28T22:00:17.182Z,18.60
2019-03-28T22:02:45.786Z,17.25
2019-03-28T22:05:14.512Z,21.75
2019-03-28T22:07:42.995Z,24.02
2019-03-28T22:10:11.745Z,22.85
2019-03-28T22:12:40.307Z,20.20
2019-03-28T22:15:09.691Z,16.70
2019-03-28T22:17:41.972Z,20.48
2019-03-28T22:20:10.968Z,22.55
2019-03-28T22:22:39.607Z,24.50
2019-03-28T22:25:08.348Z,22.42
2019-03-28T22:27:36.943Z,21.07
2019-03-28T22:30:07.202Z,19.23
2019-03-28T22:32:35.752Z,20.95
2019-03-28T22:35:28.727Z,21.25
2019-03-28T22:37:57.214Z,19.85
2019-03-28T22:40:25.758Z,21.77
2019-03-28T22:42:54.245Z,22.02
2019-03-28T22:45:22.932Z,22.95
2019-03-28T22:47:51.438Z,24.57
2019-03-28T22:50:20.017Z,19.25
2019-03-28T22:52:48.532Z,20.30
2019-03-28T22:55:17.184Z,19.25
2019-03-28T22:57:45.688Z,22.02
2019-03-28T23:00:15.558Z,24.15
2019-03-28T23:02:44.180Z,18.67
2019-03-28T23:05:13.506Z,22.48
2019-03-28T23:07:41.988Z,23.20
2019-03-28T23:10:11.463Z,17.42
2019-03-28T23:12:40.058Z,20.05
2019-03-28T23:15:10.856Z,20.15
2019-03-28T23:17:39.480Z,21.27
2019-03-28T23:20:09.921Z,21.68
2019-03-28T23:22:38.492Z,23.65
2019-03-28T23:25:09.113Z,19.50
2019-03-28T23:27:37.673Z,18.20
2019-03-28T23:30:09.351Z,24.00
2019-03-28T23:32:38.754Z,23.40
2019-03-28T23:35:08.213Z,23.50
2019-03-28T23:37:36.701Z,21.82
2019-03-28T23:40:09.899Z,19.95
2019-03-28T23:42:38.478Z,20.10
2019-03-28T23:45:11.896Z,24.20
2019-03-28T23:47:41.940Z,23.67
2019-03-28T23:50:10.585Z,21.87
2019-03-28T23:52:39.069Z,20.40
2019-03-28T23:55:09.281Z,21.45
2019-03-28T23:57:37.753Z,22.07
